Time;durP1;ratioP1;P1;durP2;ratioP2;P2;SDS_P1;SDS_P2;PMS_P1;PMS_P2;Temp;Humidity;BMP_temperature;BMP_pressure;BME280_temperature;BME280_humidity;BME280_pressure;Samples;Min_cycle;Max_cycle;Signal;HPM_P1;HPM_P2
2022/06/17 00:01:12;;;;;;;;;;;17.70;43.10;;;;;;4958798;29;20425;-91
2022/06/17 00:03:38;;;;;;;;;;;17.70;43.10;;;;;;4943473;29;19965;-90
2022/06/17 00:06:04;;;;;;;;;;;17.70;43.10;;;;;;4947893;28;19937;-90
2022/06/17 00:08:40;;;;;;;;;;;17.60;43.20;;;;;;4956560;28;19918;-92
2022/06/17 00:11:10;;;;;;;;;;;17.60;43.20;;;;;;4939273;29;19915;-91
2022/06/17 00:13:36;;;;;;;;;;;17.50;43.50;;;;;;4941730;29;19918;-92
2022/06/17 00:16:01;;;;;;;;;;;17.50;44.00;;;;;;4945220;29;19950;-92
2022/06/17 00:18:27;;;;;;;;;;;17.40;44.10;;;;;;4924243;29;19931;-93
2022/06/17 00:20:53;;;;;;;;;;;17.40;44.00;;;;;;4946010;29;19995;-91
2022/06/17 00:23:24;;;;;;;;;;;17.40;44.00;;;;;;4941485;29;19918;-92
2022/06/17 00:25:50;;;;;;;;;;;17.30;44.40;;;;;;4951664;28;19921;-92
2022/06/17 00:28:17;;;;;;;;;;;17.30;44.60;;;;;;4933929;29;20315;-92
2022/06/17 00:30:52;;;;;;;;;;;17.30;44.70;;;;;;4957688;28;20375;-91
2022/06/17 00:33:18;;;;;;;;;;;17.20;44.80;;;;;;4937843;29;20332;-91
2022/06/17 00:35:49;;;;;;;;;;;17.20;45.40;;;;;;4931533;29;19915;-91
2022/06/17 00:38:15;;;;;;;;;;;17.10;45.40;;;;;;4939443;29;20374;-92
2022/06/17 00:40:42;;;;;;;;;;;17.10;45.20;;;;;;4937984;29;20280;-91
2022/06/17 00:43:13;;;;;;;;;;;17.10;45.10;;;;;;4957278;29;19919;-91
2022/06/17 00:45:43;;;;;;;;;;;17.00;45.00;;;;;;4944017;29;19921;-92
2022/06/17 00:48:51;;;;;;;;;;;17.00;45.00;;;;;;4959197;29;20315;-92
2022/06/17 00:54:35;;;;;;;;;;;16.90;45.00;;;;;;4932103;29;19961;-92
2022/06/17 00:57:01;;;;;;;;;;;16.80;45.10;;;;;;4948657;29;19938;-91
2022/06/17 00:59:26;;;;;;;;;;;16.80;45.20;;;;;;4938486;29;19927;-91
2022/06/17 01:02:00;;;;;;;;;;;16.80;45.20;;;;;;4948551;28;19924;-91
2022/06/17 01:04:28;;;;;;;;;;;16.80;45.30;;;;;;4962047;28;19922;-90
2022/06/17 01:06:57;;;;;;;;;;;16.70;45.40;;;;;;4950029;29;19921;-90
2022/06/17 01:12:18;;;;;;;;;;;16.70;45.60;;;;;;4973039;28;19936;-90
2022/06/17 01:14:46;;;;;;;;;;;16.70;46.20;;;;;;4970730;28;20003;-89
2022/06/17 01:17:14;;;;;;;;;;;16.70;46.20;;;;;;4949364;29;19919;-90
2022/06/17 01:19:43;;;;;;;;;;;16.70;46.10;;;;;;4923526;29;19986;-89
2022/06/17 01:22:30;;;;;;;;;;;16.70;46.60;;;;;;4936496;29;20682;-88
2022/06/17 01:24:58;;;;;;;;;;;16.60;46.80;;;;;;4950607;29;20451;-89
2022/06/17 01:27:25;;;;;;;;;;;16.60;47.20;;;;;;4953839;28;19926;-90
2022/06/17 01:29:51;;;;;;;;;;;16.60;47.00;;;;;;4943592;29;19918;-90
2022/06/17 01:32:18;;;;;;;;;;;16.50;47.10;;;;;;4918364;29;19923;-89
2022/06/17 01:34:43;;;;;;;;;;;16.50;47.30;;;;;;4933169;29;20375;-90
2022/06/17 01:37:09;;;;;;;;;;;16.50;47.20;;;;;;4958038;28;19926;-91
2022/06/17 01:39:35;;;;;;;;;;;16.50;46.90;;;;;;4939581;29;19926;-92
2022/06/17 01:42:01;;;;;;;;;;;16.40;46.90;;;;;;4921442;29;19915;-91
2022/06/17 01:44:33;;;;;;;;;;;16.40;46.90;;;;;;4950369;29;19921;-92
2022/06/17 01:47:00;;;;;;;;;;;16.30;47.10;;;;;;4941870;29;19925;-91
2022/06/17 01:49:29;;;;;;;;;;;16.30;47.10;;;;;;4945484;29;19922;-92
2022/06/17 01:51:57;;;;;;;;;;;16.30;47.00;;;;;;4946760;29;19954;-92
2022/06/17 01:54:29;;;;;;;;;;;16.30;47.00;;;;;;4936455;29;20260;-92
2022/06/17 01:57:01;;;;;;;;;;;16.30;47.30;;;;;;4944042;29;20009;-92
2022/06/17 01:59:31;;;;;;;;;;;16.20;47.40;;;;;;4945645;29;19923;-91
2022/06/17 02:02:01;;;;;;;;;;;16.20;47.50;;;;;;4931817;29;19934;-91
2022/06/17 02:04:30;;;;;;;;;;;16.20;47.60;;;;;;4928158;29;19914;-91
2022/06/17 02:06:56;;;;;;;;;;;16.10;47.60;;;;;;4945092;29;19919;-89
2022/06/17 02:09:21;;;;;;;;;;;16.10;47.60;;;;;;4938862;29;19918;-90
2022/06/17 02:11:50;;;;;;;;;;;16.10;47.50;;;;;;4936044;29;19926;-89
2022/06/17 02:14:16;;;;;;;;;;;16.10;47.70;;;;;;4936715;29;20287;-90
2022/06/17 02:16:43;;;;;;;;;;;16.10;47.80;;;;;;4953355;28;19919;-90
2022/06/17 02:19:09;;;;;;;;;;;16.10;47.90;;;;;;4923325;29;19930;-89
2022/06/17 02:21:38;;;;;;;;;;;16.00;47.90;;;;;;4954836;28;19938;-91
2022/06/17 02:24:04;;;;;;;;;;;16.00;48.10;;;;;;4937443;29;20333;-91
2022/06/17 02:26:33;;;;;;;;;;;16.00;48.30;;;;;;4940804;29;19925;-91
2022/06/17 02:29:00;;;;;;;;;;;16.00;48.70;;;;;;4925770;29;20017;-90
2022/06/17 02:31:27;;;;;;;;;;;15.90;48.70;;;;;;4934935;29;19914;-90
2022/06/17 02:33:53;;;;;;;;;;;15.90;48.90;;;;;;4951309;29;19925;-90
2022/06/17 02:36:32;;;;;;;;;;;15.90;48.90;;;;;;4943915;29;19922;-91
2022/06/17 02:38:59;;;;;;;;;;;15.80;48.60;;;;;;4944537;29;19993;-90
2022/06/17 02:41:26;;;;;;;;;;;15.80;48.50;;;;;;4934034;29;19930;-91
2022/06/17 02:43:58;;;;;;;;;;;15.80;48.40;;;;;;4938256;29;19921;-92
2022/06/17 02:46:27;;;;;;;;;;;15.80;48.50;;;;;;4937297;29;19923;-89
2022/06/17 02:48:54;;;;;;;;;;;15.80;48.40;;;;;;4941214;29;20001;-90
2022/06/17 02:51:21;;;;;;;;;;;15.70;48.30;;;;;;4964104;28;19918;-89
2022/06/17 02:53:46;;;;;;;;;;;15.70;48.30;;;;;;4952844;29;19915;-89
2022/06/17 02:56:15;;;;;;;;;;;15.70;48.30;;;;;;4952415;28;19926;-88
2022/06/17 02:58:49;;;;;;;;;;;15.70;48.20;;;;;;4942771;29;20310;-88
2022/06/17 03:01:17;;;;;;;;;;;15.70;48.40;;;;;;4942728;29;19935;-88
2022/06/17 03:03:43;;;;;;;;;;;15.70;48.70;;;;;;4936109;29;20451;-89
2022/06/17 03:06:14;;;;;;;;;;;15.70;48.60;;;;;;4940190;29;19950;-89
2022/06/17 03:08:42;;;;;;;;;;;15.70;48.60;;;;;;4943017;29;20019;-89
2022/06/17 03:11:09;;;;;;;;;;;15.70;48.60;;;;;;4947456;28;19914;-89
2022/06/17 03:13:36;;;;;;;;;;;15.70;48.80;;;;;;4932656;29;20367;-89
2022/06/17 03:16:05;;;;;;;;;;;15.70;48.80;;;;;;4955654;29;19921;-89
2022/06/17 03:18:31;;;;;;;;;;;15.80;48.90;;;;;;4939627;29;19930;-88
2022/06/17 03:20:57;;;;;;;;;;;15.80;49.10;;;;;;4941530;29;19957;-89
2022/06/17 03:23:24;;;;;;;;;;;15.80;49.30;;;;;;4958884;29;20385;-89
2022/06/17 03:25:56;;;;;;;;;;;15.90;49.70;;;;;;4942636;29;19954;-89
2022/06/17 03:28:28;;;;;;;;;;;16.10;50.20;;;;;;4941744;29;19918;-88
2022/06/17 03:30:57;;;;;;;;;;;16.30;50.50;;;;;;4937652;29;19950;-89
2022/06/17 03:33:25;;;;;;;;;;;16.50;50.90;;;;;;4921935;29;19974;-89
2022/06/17 03:35:53;;;;;;;;;;;16.70;51.10;;;;;;4946669;28;19914;-90
2022/06/17 03:38:28;;;;;;;;;;;16.90;51.10;;;;;;4940344;29;19919;-89
2022/06/17 03:40:56;;;;;;;;;;;17.20;51.00;;;;;;4942323;28;19922;-89
2022/06/17 03:43:43;;;;;;;;;;;17.40;51.20;;;;;;4936721;29;19919;-90
2022/06/17 03:46:31;;;;;;;;;;;17.70;51.20;;;;;;4939634;29;19919;-90
2022/06/17 03:49:03;;;;;;;;;;;18.10;51.20;;;;;;4934004;29;20268;-91
2022/06/17 03:51:28;;;;;;;;;;;18.40;50.90;;;;;;4924721;29;19919;-91
2022/06/17 03:53:57;;;;;;;;;;;18.50;50.00;;;;;;4938833;29;19977;-90
2022/06/17 03:56:35;;;;;;;;;;;18.60;49.40;;;;;;4939047;28;19914;-90
2022/06/17 03:59:05;;;;;;;;;;;18.60;48.90;;;;;;4953175;29;19929;-90
2022/06/17 04:01:42;;;;;;;;;;;18.60;48.60;;;;;;4954260;28;20409;-91
2022/06/17 04:04:20;;;;;;;;;;;18.60;48.50;;;;;;4940764;29;19918;-91
2022/06/17 04:06:47;;;;;;;;;;;18.60;48.60;;;;;;4937471;29;19911;-91
2022/06/17 04:09:14;;;;;;;;;;;18.70;48.80;;;;;;4939934;29;19939;-92
2022/06/17 04:11:42;;;;;;;;;;;18.80;49.00;;;;;;4933317;29;19915;-90
2022/06/17 04:14:16;;;;;;;;;;;19.10;49.40;;;;;;4939793;29;19974;-88
2022/06/17 04:16:44;;;;;;;;;;;19.30;49.40;;;;;;4921333;29;19910;-91
2022/06/17 04:19:17;;;;;;;;;;;19.60;48.90;;;;;;4926698;29;19954;-92
2022/06/17 04:21:42;;;;;;;;;;;19.70;48.50;;;;;;4954268;29;20296;-90
2022/06/17 04:24:16;;;;;;;;;;;19.80;48.10;;;;;;4956894;29;19974;-91
2022/06/17 04:26:43;;;;;;;;;;;19.90;48.20;;;;;;4929326;29;20367;-91
2022/06/17 04:29:15;;;;;;;;;;;20.20;48.60;;;;;;4959637;29;20375;-91
2022/06/17 04:31:42;;;;;;;;;;;20.50;48.80;;;;;;4938400;29;19914;-91
2022/06/17 04:34:21;;;;;;;;;;;21.00;48.80;;;;;;4921923;29;19925;-90
2022/06/17 04:36:46;;;;;;;;;;;21.40;48.70;;;;;;4930820;29;20316;-90
2022/06/17 04:39:31;;;;;;;;;;;21.90;48.40;;;;;;4938187;29;19942;-90
2022/06/17 04:42:16;;;;;;;;;;;22.40;48.10;;;;;;4971214;28;19968;-90
2022/06/17 04:44:42;;;;;;;;;;;23.00;47.30;;;;;;4961791;28;19926;-91
2022/06/17 04:47:13;;;;;;;;;;;23.50;45.90;;;;;;4937705;29;20640;-90
2022/06/17 04:49:41;;;;;;;;;;;23.90;45.20;;;;;;4943018;29;19926;-91
2022/06/17 04:52:27;;;;;;;;;;;24.30;44.70;;;;;;4935327;29;20005;-93
2022/06/17 04:54:55;;;;;;;;;;;24.80;44.10;;;;;;4922402;29;19923;-92
2022/06/17 04:57:21;;;;;;;;;;;25.30;43.90;;;;;;4940493;29;19922;-92
2022/06/17 05:00:08;;;;;;;;;;;25.80;43.00;;;;;;4920133;29;19922;-91
2022/06/17 05:02:34;;;;;;;;;;;26.30;41.60;;;;;;4949681;29;19915;-92
2022/06/17 05:05:05;;;;;;;;;;;26.90;41.00;;;;;;4938905;29;20327;-92
2022/06/17 05:07:41;;;;;;;;;;;27.30;40.50;;;;;;4947048;29;19922;-91
2022/06/17 05:10:11;;;;;;;;;;;27.80;39.80;;;;;;4926941;29;20326;-93
2022/06/17 05:12:36;;;;;;;;;;;28.40;38.70;;;;;;4939164;29;19915;-91
2022/06/17 05:15:16;;;;;;;;;;;28.80;37.70;;;;;;4943344;29;20388;-92
2022/06/17 05:17:42;;;;;;;;;;;29.30;36.80;;;;;;4922489;29;19922;-92
2022/06/17 05:20:10;;;;;;;;;;;29.70;36.10;;;;;;4926648;29;20303;-92
2022/06/17 05:22:45;;;;;;;;;;;30.10;35.40;;;;;;4941610;28;19914;-92
2022/06/17 05:25:13;;;;;;;;;;;30.50;34.80;;;;;;4942165;29;20390;-90
2022/06/17 05:27:39;;;;;;;;;;;31.00;33.80;;;;;;4958797;29;20005;-91
2022/06/17 05:30:08;;;;;;;;;;;31.20;33.20;;;;;;4936817;29;19954;-92
2022/06/17 05:32:34;;;;;;;;;;;31.60;32.70;;;;;;4927788;29;19925;-92
2022/06/17 05:34:59;;;;;;;;;;;32.00;32.40;;;;;;4949688;28;19915;-92
2022/06/17 05:37:25;;;;;;;;;;;32.30;31.80;;;;;;4941973;29;19986;-91
2022/06/17 05:40:11;;;;;;;;;;;32.60;30.80;;;;;;4936497;29;19962;-92
2022/06/17 05:42:37;;;;;;;;;;;33.10;30.40;;;;;;4948401;29;19918;-92
2022/06/17 05:45:03;;;;;;;;;;;33.30;29.20;;;;;;4939732;29;19919;-93
2022/06/17 05:47:29;;;;;;;;;;;33.40;28.20;;;;;;4906856;29;20399;-93
2022/06/17 05:49:54;;;;;;;;;;;33.40;27.70;;;;;;4937544;29;19921;-92
2022/06/17 05:52:20;;;;;;;;;;;33.50;27.60;;;;;;4944638;29;20135;-91
2022/06/17 05:54:46;;;;;;;;;;;33.60;27.70;;;;;;4936323;29;19915;-92
2022/06/17 05:57:11;;;;;;;;;;;33.80;27.50;;;;;;4923714;29;19919;-92
2022/06/17 05:59:37;;;;;;;;;;;34.00;27.60;;;;;;4937466;29;19919;-93
2022/06/17 06:02:03;;;;;;;;;;;34.30;27.50;;;;;;4937988;29;19929;-93
2022/06/17 06:04:32;;;;;;;;;;;34.70;27.20;;;;;;4938225;29;19919;-93
2022/06/17 06:07:00;;;;;;;;;;;35.00;26.60;;;;;;4939905;29;20434;-93
2022/06/17 06:09:28;;;;;;;;;;;35.40;26.60;;;;;;4941154;29;20299;-92
2022/06/17 06:11:53;;;;;;;;;;;35.70;25.90;;;;;;4956966;29;19915;-93
2022/06/17 06:14:19;;;;;;;;;;;36.10;25.80;;;;;;4945021;29;19925;-93
2022/06/17 06:16:44;;;;;;;;;;;36.50;25.40;;;;;;4944575;29;19921;-93
2022/06/17 06:19:10;;;;;;;;;;;36.90;25.10;;;;;;4957828;29;19930;-93
2022/06/17 06:21:36;;;;;;;;;;;37.30;24.80;;;;;;4927053;29;19922;-94
2022/06/17 06:24:01;;;;;;;;;;;37.70;24.20;;;;;;4926888;29;19915;-93
2022/06/17 06:26:27;;;;;;;;;;;38.00;24.00;;;;;;4933505;29;19915;-92
2022/06/17 06:28:52;;;;;;;;;;;38.40;23.40;;;;;;4955185;29;20311;-91
2022/06/17 06:31:32;;;;;;;;;;;38.80;23.10;;;;;;4962172;29;20299;-92
2022/06/17 06:33:58;;;;;;;;;;;39.10;22.60;;;;;;4927639;29;20367;-93
2022/06/17 06:36:24;;;;;;;;;;;39.40;22.50;;;;;;4943688;29;19921;-91
2022/06/17 06:38:49;;;;;;;;;;;39.70;22.10;;;;;;4926317;29;20379;-92
2022/06/17 06:41:17;;;;;;;;;;;39.80;21.60;;;;;;4944946;29;20009;-93
2022/06/17 06:43:44;;;;;;;;;;;40.10;21.30;;;;;;4943503;29;19914;-93
2022/06/17 06:46:11;;;;;;;;;;;40.30;20.80;;;;;;4944258;29;19983;-93
2022/06/17 06:48:48;;;;;;;;;;;40.40;20.80;;;;;;4929164;29;19948;-92
2022/06/17 06:51:13;;;;;;;;;;;40.70;20.80;;;;;;4945811;29;19919;-93
2022/06/17 06:53:39;;;;;;;;;;;41.10;20.20;;;;;;4941048;29;19914;-94
2022/06/17 06:56:05;;;;;;;;;;;41.40;19.80;;;;;;4941384;29;20256;-94
2022/06/17 06:58:31;;;;;;;;;;;41.70;19.70;;;;;;4941898;29;20295;-93
2022/06/17 07:00:56;;;;;;;;;;;42.00;19.50;;;;;;4924617;29;20002;-94
2022/06/17 07:03:23;;;;;;;;;;;42.50;19.40;;;;;;4924853;29;19922;-93
2022/06/17 07:05:50;;;;;;;;;;;42.90;19.00;;;;;;4941616;29;19962;-93
2022/06/17 07:08:20;;;;;;;;;;;43.30;18.40;;;;;;4927792;29;19906;-94
2022/06/17 07:10:46;;;;;;;;;;;43.70;18.40;;;;;;4925060;29;20006;-94
2022/06/17 07:13:12;;;;;;;;;;;44.20;17.70;;;;;;4923269;29;19958;-93
2022/06/17 07:15:41;;;;;;;;;;;44.40;17.10;;;;;;4941654;29;20278;-94
2022/06/17 07:18:11;;;;;;;;;;;44.40;16.50;;;;;;4925145;29;20375;-92
2022/06/17 07:20:40;;;;;;;;;;;44.50;16.30;;;;;;4925603;29;19969;-93
2022/06/17 07:23:19;;;;;;;;;;;44.70;15.80;;;;;;4942762;29;20371;-94
2022/06/17 07:25:45;;;;;;;;;;;44.70;15.80;;;;;;4943499;29;20019;-94
2022/06/17 07:28:14;;;;;;;;;;;44.80;15.20;;;;;;4926144;29;20286;-95
2022/06/17 07:30:40;;;;;;;;;;;44.80;14.60;;;;;;4926081;29;19919;-94
2022/06/17 07:33:05;;;;;;;;;;;44.70;14.50;;;;;;4942516;29;19919;-93
2022/06/17 07:35:31;;;;;;;;;;;44.80;14.40;;;;;;4941387;29;20279;-94
2022/06/17 07:40:47;;;;;;;;;;;44.80;14.00;;;;;;4942901;29;19929;-93
2022/06/17 07:43:14;;;;;;;;;;;44.70;13.80;;;;;;4942157;29;19922;-93
2022/06/17 07:45:43;;;;;;;;;;;44.90;13.90;;;;;;4925050;29;20013;-94
2022/06/17 07:48:11;;;;;;;;;;;45.00;13.90;;;;;;4942222;29;20283;-94
2022/06/17 07:50:37;;;;;;;;;;;45.30;13.80;;;;;;4925216;29;19914;-94
2022/06/17 07:53:03;;;;;;;;;;;45.70;13.80;;;;;;4925755;29;19923;-94
2022/06/17 07:55:29;;;;;;;;;;;46.00;13.80;;;;;;4941660;29;19922;-95
2022/06/17 07:57:54;;;;;;;;;;;46.20;13.90;;;;;;4927164;29;19974;-92
2022/06/17 08:00:27;;;;;;;;;;;46.30;13.30;;;;;;4943378;29;20035;-95
2022/06/17 08:02:53;;;;;;;;;;;46.00;13.10;;;;;;4943678;29;19925;-94
2022/06/17 08:05:19;;;;;;;;;;;46.10;13.30;;;;;;4944539;29;19915;-94
2022/06/17 08:07:45;;;;;;;;;;;46.40;13.60;;;;;;4945037;29;19938;-95
2022/06/17 08:10:19;;;;;;;;;;;46.90;13.50;;;;;;4943738;29;20454;-94
2022/06/17 08:12:47;;;;;;;;;;;47.30;13.40;;;;;;4958828;29;19915;-95
2022/06/17 08:15:12;;;;;;;;;;;47.70;13.30;;;;;;4941714;29;19918;-93
2022/06/17 08:17:39;;;;;;;;;;;47.70;12.70;;;;;;4942297;29;20009;-93
2022/06/17 08:20:09;;;;;;;;;;;47.30;12.30;;;;;;4960954;29;19973;-94
2022/06/17 08:22:41;;;;;;;;;;;46.60;12.40;;;;;;4944815;29;19918;-93
2022/06/17 08:25:06;;;;;;;;;;;46.00;12.90;;;;;;4960833;29;19922;-94
2022/06/17 08:27:35;;;;;;;;;;;45.70;13.00;;;;;;4944446;29;19939;-94
2022/06/17 08:30:00;;;;;;;;;;;45.60;13.50;;;;;;4944777;29;19926;-94
2022/06/17 08:35:10;;;;;;;;;;;45.90;13.50;;;;;;4962302;29;19925;-93
2022/06/17 08:37:36;;;;;;;;;;;46.20;13.40;;;;;;4944601;29;19914;-94
2022/06/17 08:40:05;;;;;;;;;;;46.50;13.40;;;;;;4944081;29;19918;-94
2022/06/17 08:42:37;;;;;;;;;;;46.80;13.50;;;;;;4944889;29;19914;-93
2022/06/17 08:45:21;;;;;;;;;;;47.20;13.50;;;;;;4946275;29;19914;-92
2022/06/17 08:48:04;;;;;;;;;;;47.50;13.20;;;;;;4944286;29;19915;-91
2022/06/17 08:50:32;;;;;;;;;;;47.70;13.20;;;;;;4935792;29;20264;-91
2022/06/17 08:53:16;;;;;;;;;;;47.90;13.00;;;;;;4924035;29;19895;-91
2022/06/17 08:55:45;;;;;;;;;;;47.80;12.70;;;;;;4946908;28;20419;-92
2022/06/17 08:58:29;;;;;;;;;;;47.50;12.70;;;;;;4962668;28;19906;-91
2022/06/17 09:01:03;;;;;;;;;;;47.20;12.80;;;;;;4979777;28;19978;-92
2022/06/17 09:03:28;;;;;;;;;;;47.10;13.00;;;;;;4962050;28;19965;-94
2022/06/17 09:06:06;;;;;;;;;;;47.10;13.00;;;;;;4961861;28;20392;-96
2022/06/17 09:08:38;;;;;;;;;;;46.80;12.70;;;;;;4950881;29;19970;-92
2022/06/17 09:11:20;;;;;;;;;;;46.40;12.80;;;;;;4940372;29;20348;-92
2022/06/17 09:14:08;;;;;;;;;;;46.20;13.00;;;;;;4923337;29;19947;-94
2022/06/17 09:16:55;;;;;;;;;;;46.00;13.00;;;;;;4941277;29;19923;-94
2022/06/17 09:19:32;;;;;;;;;;;45.70;13.20;;;;;;4924586;29;19922;-92
2022/06/17 09:22:01;;;;;;;;;;;45.60;13.40;;;;;;4924734;29;19919;-92
2022/06/17 09:24:31;;;;;;;;;;;45.50;13.50;;;;;;4923649;29;19939;-93
2022/06/17 09:27:01;;;;;;;;;;;45.40;13.40;;;;;;4923355;29;19915;-93
2022/06/17 09:29:46;;;;;;;;;;;45.30;13.50;;;;;;4923287;29;19919;-94
2022/06/17 09:33:04;;;;;;;;;;;45.00;13.20;;;;;;4924409;29;19982;-94
2022/06/17 09:35:29;;;;;;;;;;;44.80;13.60;;;;;;4914036;29;20026;-92
2022/06/17 09:38:05;;;;;;;;;;;44.80;13.80;;;;;;4922452;29;20042;-93
2022/06/17 09:40:35;;;;;;;;;;;44.90;13.80;;;;;;4921966;29;19923;-93
2022/06/17 09:46:06;;;;;;;;;;;44.60;13.60;;;;;;4900628;29;19948;-93
2022/06/17 09:48:47;;;;;;;;;;;44.80;13.60;;;;;;4900799;29;19915;-93
2022/06/17 09:51:21;;;;;;;;;;;45.10;13.20;;;;;;4900576;29;19961;-94
2022/06/17 09:54:13;;;;;;;;;;;45.50;13.20;;;;;;4901122;29;19927;-92
2022/06/17 09:56:47;;;;;;;;;;;45.90;13.00;;;;;;4870184;29;20372;-93
2022/06/17 09:59:32;;;;;;;;;;;;;;;;;;;;;
2022/06/17 10:02:09;;;;;;;;;;;47.00;13.00;;;;;;4899434;29;19921;-93
2022/06/17 10:04:52;;;;;;;;;;;47.60;12.90;;;;;;4899976;29;19966;-93
2022/06/17 10:07:46;;;;;;;;;;;48.00;12.80;;;;;;4884103;29;19923;-94
2022/06/17 10:10:30;;;;;;;;;;;48.20;12.50;;;;;;4917351;29;19919;-94
2022/06/17 10:13:17;;;;;;;;;;;47.80;12.20;;;;;;4905511;29;20344;-94
2022/06/17 10:19:06;;;;;;;;;;;47.90;12.20;;;;;;4940225;29;20383;-93
2022/06/17 10:21:49;;;;;;;;;;;48.20;12.10;;;;;;4922114;29;19923;-93
2022/06/17 10:24:37;;;;;;;;;;;48.20;12.40;;;;;;4922191;29;19919;-93
2022/06/17 10:27:23;;;;;;;;;;;48.40;12.50;;;;;;4948117;28;19922;-93
2022/06/17 10:30:13;;;;;;;;;;;48.70;12.50;;;;;;4960472;28;19918;-94
2022/06/17 10:32:51;;;;;;;;;;;48.90;12.30;;;;;;4977252;28;19914;-94
2022/06/17 10:41:22;;;;;;;;;;;49.10;11.80;;;;;;4977713;28;20432;-94
2022/06/17 10:43:52;;;;;;;;;;;49.00;11.90;;;;;;4960544;28;20001;-93
2022/06/17 10:46:28;;;;;;;;;;;49.10;11.90;;;;;;4960169;28;19926;-95
2022/06/17 10:49:20;;;;;;;;;;;49.30;11.80;;;;;;4960161;28;19925;-94
2022/06/17 10:51:53;;;;;;;;;;;49.30;11.70;;;;;;4952221;28;19925;-94
2022/06/17 10:54:39;;;;;;;;;;;49.10;11.40;;;;;;4963016;28;19914;-94
2022/06/17 10:57:08;;;;;;;;;;;48.90;11.70;;;;;;4963408;28;19960;-94
2022/06/17 10:59:39;;;;;;;;;;;48.40;11.70;;;;;;4963303;28;19957;-93
2022/06/17 11:02:29;;;;;;;;;;;47.90;11.90;;;;;;4963145;28;20028;-94
2022/06/17 11:07:51;;;;;;;;;;;48.40;12.20;;;;;;4981903;28;19926;-94
2022/06/17 11:10:17;;;;;;;;;;;48.70;11.60;;;;;;4964602;28;20277;-93
2022/06/17 11:12:52;;;;;;;;;;;48.40;11.60;;;;;;4981459;28;19965;-93
2022/06/17 11:15:39;;;;;;;;;;;47.80;11.90;;;;;;4964063;28;19902;-93
2022/06/17 11:18:43;;;;;;;;;;;;;;;;;;;;;
2022/06/17 11:24:24;;;;;;;;;;;45.70;12.20;;;;;;4935703;28;19941;-92
2022/06/17 11:27:04;;;;;;;;;;;45.00;12.30;;;;;;4966860;28;19923;-91
2022/06/17 11:29:35;;;;;;;;;;;44.50;12.20;;;;;;4964853;28;19989;-93
2022/06/17 11:35:20;;;;;;;;;;;44.00;12.70;;;;;;4969297;28;20058;-92
2022/06/17 11:40:56;;;;;;;;;;;44.30;12.50;;;;;;4980004;28;19953;-92
2022/06/17 11:46:42;;;;;;;;;;;43.90;12.70;;;;;;4896067;29;19972;-92
2022/06/17 11:49:20;;;;;;;;;;;43.80;12.80;;;;;;4892757;29;20352;-92
2022/06/17 11:51:51;;;;;;;;;;;43.70;12.90;;;;;;4945233;29;19970;-90
2022/06/17 11:54:19;;;;;;;;;;;43.50;12.90;;;;;;4939417;29;20058;-90
2022/06/17 11:56:46;;;;;;;;;;;43.30;13.20;;;;;;4947737;28;20302;-91
2022/06/17 11:59:25;;;;;;;;;;;43.30;13.40;;;;;;4950093;29;19926;-90
2022/06/17 12:02:10;;;;;;;;;;;43.40;13.10;;;;;;4938899;29;19923;-91
2022/06/17 12:04:41;;;;;;;;;;;43.10;13.20;;;;;;4943078;29;20315;-91
2022/06/17 12:07:23;;;;;;;;;;;43.00;13.40;;;;;;4940373;29;19965;-90
2022/06/17 12:09:52;;;;;;;;;;;42.80;13.30;;;;;;4942861;29;19922;-91
2022/06/17 12:12:19;;;;;;;;;;;42.90;13.50;;;;;;4925782;29;20691;-91
2022/06/17 12:14:50;;;;;;;;;;;43.10;13.30;;;;;;4939242;29;19921;-91
2022/06/17 12:17:17;;;;;;;;;;;43.30;13.40;;;;;;4960193;28;19914;-89
2022/06/17 12:19:44;;;;;;;;;;;43.30;13.20;;;;;;4963697;28;20018;-91
2022/06/17 12:22:19;;;;;;;;;;;43.10;13.20;;;;;;4961814;28;20371;-91
2022/06/17 12:25:17;;;;;;;;;;;42.80;13.30;;;;;;4933283;29;19915;-89
2022/06/17 12:27:49;;;;;;;;;;;42.50;13.40;;;;;;4910089;29;19925;-89
2022/06/17 12:30:19;;;;;;;;;;;42.10;13.50;;;;;;4940989;29;19943;-90
2022/06/17 12:33:00;;;;;;;;;;;41.60;13.70;;;;;;4937651;29;19914;-90
2022/06/17 12:35:54;;;;;;;;;;;41.20;14.10;;;;;;4925037;29;19962;-90
2022/06/17 12:38:49;;;;;;;;;;;40.90;14.30;;;;;;4949695;29;19941;-89
2022/06/17 12:41:28;;;;;;;;;;;40.60;14.50;;;;;;4941708;29;19946;-90
2022/06/17 12:44:00;;;;;;;;;;;40.50;14.60;;;;;;4941739;29;20021;-89
2022/06/17 12:46:25;;;;;;;;;;;40.30;14.70;;;;;;4942649;29;20438;-88
2022/06/17 12:53:13;;;;;;;;;;;40.20;15.00;;;;;;4925074;29;19970;-90
2022/06/17 12:55:01;;;;;;;;;;;40.00;14.90;;;;;;4959167;29;19925;-89
2022/06/17 12:57:41;;;;;;;;;;;39.80;15.10;;;;;;4935455;29;19965;-88
2022/06/17 13:00:18;;;;;;;;;;;39.80;15.10;;;;;;4939395;29;19934;-89
2022/06/17 13:03:06;;;;;;;;;;;39.70;15.20;;;;;;4940901;29;19926;-90
2022/06/17 13:05:47;;;;;;;;;;;39.70;15.10;;;;;;4943738;28;20271;-90
2022/06/17 13:08:19;;;;;;;;;;;39.60;15.30;;;;;;4945274;29;19923;-91
2022/06/17 13:11:15;;;;;;;;;;;39.60;15.20;;;;;;4943691;29;19938;-91
2022/06/17 13:14:00;;;;;;;;;;;39.60;15.20;;;;;;4942891;29;19919;-91
2022/06/17 13:19:55;;;;;;;;;;;39.80;15.00;;;;;;4918833;29;19963;-91
2022/06/17 13:25:44;;;;;;;;;;;40.20;15.10;;;;;;4870162;29;20015;-91
2022/06/17 13:31:52;;;;;;;;;;;;;;;;;;;;;
2022/06/17 13:34:38;;;;;;;;;;;41.50;14.60;;;;;;4808222;29;19916;-90
2022/06/17 13:37:16;;;;;;;;;;;41.70;14.10;;;;;;4869268;29;19934;-91
2022/06/17 13:40:02;;;;;;;;;;;41.70;14.10;;;;;;4912406;29;19927;-90
2022/06/17 13:42:28;;;;;;;;;;;42.20;14.10;;;;;;4917264;29;20043;-91
2022/06/17 13:45:20;;;;;;;;;;;42.50;13.70;;;;;;4902544;29;19962;-90
2022/06/17 13:48:08;;;;;;;;;;;42.30;13.80;;;;;;4926041;29;20274;-91
2022/06/17 13:50:43;;;;;;;;;;;42.10;13.70;;;;;;4933652;29;20279;-91
2022/06/17 13:53:27;;;;;;;;;;;41.80;13.80;;;;;;4952470;28;19922;-90
2022/06/17 13:55:58;;;;;;;;;;;41.60;14.00;;;;;;4951827;28;19914;-90
2022/06/17 13:58:54;;;;;;;;;;;41.70;14.20;;;;;;4937187;29;19923;-91
2022/06/17 14:01:48;;;;;;;;;;;42.00;14.10;;;;;;4942560;29;20363;-93
2022/06/17 14:04:50;;;;;;;;;;;42.00;13.80;;;;;;4921431;29;20047;-93
2022/06/17 14:07:47;;;;;;;;;;;41.70;13.90;;;;;;4935880;29;19926;-89
2022/06/17 14:13:54;;;;;;;;;;;41.40;14.30;;;;;;4953446;29;19924;-90
2022/06/17 14:16:35;;;;;;;;;;;41.50;14.30;;;;;;4869632;29;20047;-91
2022/06/17 14:19:11;;;;;;;;;;;41.60;14.10;;;;;;4918145;29;19929;-92
2022/06/17 14:21:47;;;;;;;;;;;42.20;13.60;;;;;;4934562;29;20348;-91
2022/06/17 14:24:14;;;;;;;;;;;42.30;13.50;;;;;;4938088;29;19918;-90
2022/06/17 14:26:43;;;;;;;;;;;42.30;13.50;;;;;;4950108;29;19970;-92
2022/06/17 14:29:18;;;;;;;;;;;;;;;;;;;;;
2022/06/17 14:31:50;;;;;;;;;;;42.30;13.30;;;;;;4951504;28;19918;-90
2022/06/17 14:34:39;;;;;;;;;;;42.30;13.30;;;;;;4951223;29;19954;-90
2022/06/17 14:37:11;;;;;;;;;;;42.20;13.20;;;;;;4916370;29;19998;-90
2022/06/17 14:43:20;;;;;;;;;;;41.80;13.20;;;;;;4928294;29;20023;-91
2022/06/17 14:45:59;;;;;;;;;;;41.70;13.60;;;;;;4950777;29;19941;-90
2022/06/17 14:48:43;;;;;;;;;;;41.80;13.60;;;;;;4941689;29;20013;-91
2022/06/17 14:51:31;;;;;;;;;;;41.80;13.30;;;;;;4950929;29;19929;-90
2022/06/17 14:54:03;;;;;;;;;;;41.60;13.50;;;;;;4943782;29;19922;-90
2022/06/17 14:56:39;;;;;;;;;;;41.40;13.40;;;;;;4940963;29;19978;-90
2022/06/17 14:59:25;;;;;;;;;;;41.20;13.60;;;;;;4943991;29;19926;-91
2022/06/17 15:01:59;;;;;;;;;;;41.00;13.80;;;;;;4940750;29;19906;-91
2022/06/17 15:04:52;;;;;;;;;;;40.90;13.70;;;;;;4925496;29;19922;-92
2022/06/17 15:07:22;;;;;;;;;;;40.80;13.90;;;;;;4931765;29;19966;-92
2022/06/17 15:09:58;;;;;;;;;;;40.70;14.10;;;;;;4927138;29;19915;-91
2022/06/17 15:12:34;;;;;;;;;;;40.40;14.00;;;;;;4949622;29;19914;-93
2022/06/17 15:15:03;;;;;;;;;;;40.20;14.00;;;;;;4946462;29;19905;-92
2022/06/17 15:17:37;;;;;;;;;;;40.10;14.30;;;;;;4942610;29;19919;-92
2022/06/17 15:20:23;;;;;;;;;;;40.10;14.40;;;;;;4928030;29;19927;-91
2022/06/17 15:23:00;;;;;;;;;;;40.10;14.50;;;;;;4926037;29;20339;-92
2022/06/17 15:25:32;;;;;;;;;;;40.10;14.50;;;;;;4929695;29;19915;-92
2022/06/17 15:28:09;;;;;;;;;;;40.20;14.50;;;;;;4931244;29;19959;-91
2022/06/17 15:30:41;;;;;;;;;;;40.20;14.50;;;;;;4940763;28;19918;-91
2022/06/17 15:33:09;;;;;;;;;;;40.10;14.50;;;;;;4944368;29;20424;-91
2022/06/17 15:35:37;;;;;;;;;;;39.90;14.70;;;;;;4934837;29;20255;-90
2022/06/17 15:38:18;;;;;;;;;;;39.80;14.80;;;;;;4943424;29;19919;-91
2022/06/17 15:40:47;;;;;;;;;;;39.70;14.80;;;;;;4943024;29;20294;-91
2022/06/17 15:43:12;;;;;;;;;;;39.60;14.90;;;;;;4951012;29;19914;-91
2022/06/17 15:45:39;;;;;;;;;;;39.50;15.10;;;;;;4946014;29;19943;-90
2022/06/17 15:48:04;;;;;;;;;;;39.40;15.00;;;;;;4946492;29;19945;-91
2022/06/17 15:50:34;;;;;;;;;;;39.20;15.20;;;;;;4936759;28;20319;-91
2022/06/17 15:53:05;;;;;;;;;;;39.20;15.40;;;;;;4947254;29;20009;-91